Accueil
METAR-TAF:

METAR-TAF

Aéroports :

Cassel, Allemagne

latitude: 51-24N, longitude: 009-23E, altitude: 277 m

Observation

Le bulletin a été fait il y a 10 minutes, à 07:50 UTC
Vent 9 kt de est
Température 1°C
Humidité 86%
Pression 1016 hPa
Visibilité 10 km ou plus
Ciel couvert à une hauteur de 1100 ft

METAR: EDVK 210750Z 10009KT 9999 OVC011 01/M01 Q1016

Heure: 09:00 (08:00 UTC)

Prévision

Le bulletin a été fait il y a 1 heure et 27 minutes, à 06:33 UTC
Prévision valable du 21 à 07 UTC au 21 à 15 UTC
Vent 10 kt de est
Visibilité 10 km ou plus
Nuages fragmentés à une hauteur de 1200 ft

TAF: EDVK 210633Z 2107/2115 09010KT 9999 BKN012

Observations et prévisions météorologiques de plus de 4000 aéroports (messages METAR et TAF).

Les stations disponibles sont représentées par des disques jaunes et rouges sur la carte.

Passer la souris dessus pour voir le nom de la station.

Cliquer dessus pour voir les observations et prévisions météorologiques.

Pour changer de carte: cliquez sur les boutons verts avec une croix noire pour zoomer, sur le bouton vert avec un tiret pour effectuer un zoom arrière, ou sur les flèches vertes pour les cartes adjacentes.


METAR-TAF: